Time;durP1;ratioP1;P1;durP2;ratioP2;P2;SDS_P1;SDS_P2;PMS_P1;PMS_P2;Temp;Humidity;BMP_temperature;BMP_pressure;BME280_temperature;BME280_humidity;BME280_pressure;Samples;Min_cycle;Max_cycle;Signal;HPM_P1;HPM_P2
2022/01/29 00:02:18;;;;;;;53.50;31.13;;;;;;;5.69;97.86;102859.63;5221512;28;20455;-77
2022/01/29 00:04:50;;;;;;;49.70;31.80;;;;;;;5.73;97.78;102861.34;5222734;28;20076;-77
2022/01/29 00:07:21;;;;;;;51.97;32.10;;;;;;;5.65;98.57;102848.44;5222107;28;20050;-77
2022/01/29 00:10:00;;;;;;;53.47;31.53;;;;;;;5.69;97.81;102836.25;5223881;28;20171;-77
2022/01/29 00:12:31;;;;;;;52.57;31.37;;;;;;;5.71;97.75;102831.06;5223079;28;20110;-78
2022/01/29 00:15:03;;;;;;;46.17;31.73;;;;;;;5.70;97.93;102824.97;5222166;28;20110;-77
2022/01/29 00:17:35;;;;;;;57.90;32.57;;;;;;;5.70;97.65;102814.59;5220200;28;20017;-77
2022/01/29 00:20:07;;;;;;;50.40;31.90;;;;;;;5.83;96.79;102824.91;5224699;28;20018;-76
2022/01/29 00:22:39;;;;;;;51.50;30.47;;;;;;;5.72;97.84;102823.25;5218640;28;20484;-76
2022/01/29 00:25:10;;;;;;;54.13;32.37;;;;;;;5.81;97.32;102809.31;5233060;28;20025;-76
2022/01/29 00:27:41;;;;;;;51.03;33.23;;;;;;;5.75;97.62;102818.00;5232953;28;20026;-76
2022/01/29 00:30:17;;;;;;;55.47;32.47;;;;;;;5.76;97.59;102814.53;5231989;28;20033;-76
2022/01/29 00:32:48;;;;;;;53.10;30.53;;;;;;;5.80;97.40;102811.03;5233730;28;20061;-76
2022/01/29 00:35:19;;;;;;;49.27;32.20;;;;;;;5.80;98.11;102816.25;5232952;28;20049;-76
2022/01/29 00:37:51;;;;;;;51.00;32.07;;;;;;;5.73;98.41;102806.75;5233684;28;20024;-76
2022/01/29 00:40:22;;;;;;;52.93;32.37;;;;;;;5.83;97.63;102804.09;5232470;28;20063;-76
2022/01/29 00:42:54;;;;;;;54.23;35.43;;;;;;;5.75;98.40;102802.41;5233468;28;20057;-76
2022/01/29 00:45:26;;;;;;;45.20;30.60;;;;;;;5.69;98.83;102803.31;5231387;28;20078;-76
2022/01/29 00:47:57;;;;;;;51.50;32.10;;;;;;;5.76;97.78;102798.94;5232854;28;20029;-76
2022/01/29 00:50:29;;;;;;;55.97;31.33;;;;;;;5.76;97.88;102793.72;5215069;28;20385;-76
2022/01/29 00:53:00;;;;;;;48.50;32.20;;;;;;;5.74;98.59;102805.03;5232920;28;20545;-76
2022/01/29 00:55:31;;;;;;;52.73;31.47;;;;;;;5.78;97.90;102786.78;5232834;28;20026;-76
2022/01/29 00:58:03;;;;;;;49.70;32.07;;;;;;;5.85;98.54;102797.16;5232727;28;20032;-76
2022/01/29 01:00:34;;;;;;;51.70;31.33;;;;;;;5.92;97.55;102791.00;5231466;28;20033;-76
2022/01/29 01:03:05;;;;;;;56.30;32.77;;;;;;;5.85;98.43;102784.16;5232031;28;20025;-76
2022/01/29 01:05:37;;;;;;;53.30;33.30;;;;;;;5.77;98.75;102772.06;5214724;28;20017;-77
2022/01/29 01:08:08;;;;;;;51.07;34.17;;;;;;;5.89;97.82;102778.03;5232615;28;20040;-76
2022/01/29 01:10:39;;;;;;;52.73;34.33;;;;;;;5.80;99.08;102769.44;5232233;28;20063;-75
2022/01/29 01:13:11;;;;;;;59.93;34.73;;;;;;;5.69;99.17;102746.13;5232790;28;20027;-76
2022/01/29 01:15:42;;;;;;;58.63;33.77;;;;;;;5.88;99.44;102758.09;5212860;28;20033;-76
2022/01/29 01:18:13;;;;;;;47.73;32.00;;;;;;;5.84;99.33;102744.28;5232091;28;20122;-76
2022/01/29 01:20:45;;;;;;;52.33;33.23;;;;;;;5.78;99.78;102739.97;5232643;28;20018;-76
2022/01/29 01:23:16;;;;;;;48.20;32.47;;;;;;;5.87;99.87;102745.97;5231993;28;20037;-76
2022/01/29 01:25:48;;;;;;;52.03;32.70;;;;;;;5.85;100.00;102734.75;5232534;28;20076;-76
2022/01/29 01:28:19;;;;;;;50.50;31.67;;;;;;;5.79;100.00;102726.13;5231376;28;20025;-76
2022/01/29 01:30:51;;;;;;;51.80;34.17;;;;;;;5.77;99.76;102708.78;5231515;28;20388;-76
2022/01/29 01:33:22;;;;;;;49.83;30.17;;;;;;;5.76;100.00;102700.13;5231717;28;20108;-76
2022/01/29 01:35:58;;;;;;;49.50;30.73;;;;;;;5.85;100.00;102713.94;5214337;28;20026;-76
2022/01/29 01:41:06;;;;;;;46.63;32.30;;;;;;;5.84;100.00;102709.59;5214795;28;20400;-76
2022/01/29 01:43:37;;;;;;;49.33;31.03;;;;;;;5.62;100.00;102684.66;5214212;28;20079;-76
2022/01/29 01:46:09;;;;;;;48.87;31.07;;;;;;;5.77;100.00;102699.25;5230684;28;20432;-76
2022/01/29 01:48:40;;;;;;;49.83;29.83;;;;;;;5.88;100.00;102703.50;5231442;28;20033;-76
2022/01/29 01:51:13;;;;;;;49.87;30.20;;;;;;;5.79;100.00;102700.13;5230680;28;20029;-76
2022/01/29 01:53:44;;;;;;;49.43;30.77;;;;;;;5.72;100.00;102693.25;5231816;28;20025;-76
2022/01/29 01:56:15;;;;;;;48.40;30.43;;;;;;;5.70;100.00;102684.59;5231355;28;20413;-76
2022/01/29 01:58:47;;;;;;;46.87;26.77;;;;;;;5.71;100.00;102696.69;5231670;28;20397;-76
2022/01/29 02:01:18;;;;;;;44.50;27.73;;;;;;;5.74;100.00;102685.44;5230446;28;20029;-76
2022/01/29 02:03:50;;;;;;;46.07;29.50;;;;;;;5.61;100.00;102667.34;5231245;28;20033;-76
2022/01/29 02:06:21;;;;;;;42.93;27.07;;;;;;;5.70;100.00;102682.00;5231643;28;20029;-76
2022/01/29 02:08:58;;;;;;;41.53;27.57;;;;;;;5.65;100.00;102670.78;5213308;28;20057;-76
2022/01/29 02:11:30;;;;;;;46.57;29.90;;;;;;;5.60;100.00;102663.03;5231169;28;20136;-76
2022/01/29 02:14:01;;;;;;;43.20;30.07;;;;;;;5.64;100.00;102659.50;5230909;28;20025;-76
2022/01/29 02:16:32;;;;;;;44.63;29.90;;;;;;;5.59;100.00;102644.81;5230568;28;20018;-76
2022/01/29 02:19:03;;;;;;;40.83;29.00;;;;;;;5.69;100.00;102656.84;5231514;28;20022;-76
2022/01/29 02:21:38;;;;;;;40.77;29.50;;;;;;;5.62;100.00;102655.22;5231422;28;20031;-75
2022/01/29 02:24:09;;;;;;;39.38;27.70;;;;;;;5.59;100.00;102650.03;5213715;28;20029;-76
2022/01/29 02:26:40;;;;;;;39.73;28.03;;;;;;;5.64;100.00;102645.63;5229265;28;20079;-78
2022/01/29 02:29:13;;;;;;;37.60;26.20;;;;;;;5.63;100.00;102657.78;5230707;28;20021;-76
2022/01/29 02:31:50;;;;;;;37.03;27.83;;;;;;;5.53;100.00;102654.41;5228883;28;20048;-76
2022/01/29 02:34:22;;;;;;;42.37;28.73;;;;;;;5.59;100.00;102644.81;5230671;28;20021;-75
2022/01/29 02:36:55;;;;;;;41.27;27.30;;;;;;;5.67;100.00;102649.06;5230903;28;20416;-75
2022/01/29 02:39:26;;;;;;;40.17;28.23;;;;;;;5.55;100.00;102646.63;5231338;28;20547;-76
2022/01/29 02:41:58;;;;;;;40.97;28.23;;;;;;;5.56;100.00;102635.31;5230967;28;20143;-76
2022/01/29 02:44:30;;;;;;;39.90;27.37;;;;;;;5.71;100.00;102633.47;5230917;28;20029;-75
2022/01/29 02:47:26;;;;;;;37.63;27.17;;;;;;;5.61;100.00;102635.28;5229901;28;20021;-76
2022/01/29 02:49:57;;;;;;;40.33;27.30;;;;;;;5.75;100.00;102638.59;5213345;28;20121;-76
2022/01/29 02:52:29;;;;;;;42.37;28.43;;;;;;;5.67;100.00;102624.84;5230594;28;20041;-76
2022/01/29 02:55:01;;;;;;;37.10;25.90;;;;;;;5.65;100.00;102626.59;5230912;28;20033;-76
2022/01/29 02:57:32;;;;;;;40.40;28.70;;;;;;;5.63;100.00;102620.53;5234098;28;20273;-76
2022/01/29 03:00:10;;;;;;;40.47;27.70;;;;;;;5.65;100.00;102619.66;5231794;28;20029;-76
2022/01/29 03:02:41;;;;;;;40.67;28.07;;;;;;;5.61;100.00;102607.56;5230290;28;20021;-75
2022/01/29 03:05:12;;;;;;;39.87;25.67;;;;;;;5.71;100.00;102608.31;5212669;28;20026;-76
2022/01/29 03:07:43;;;;;;;41.03;27.60;;;;;;;5.68;100.00;102618.75;5230847;28;20512;-76
2022/01/29 03:10:15;;;;;;;39.47;26.53;;;;;;;5.63;100.00;102611.00;5230075;28;20045;-75
2022/01/29 03:12:47;;;;;;;42.07;27.03;;;;;;;5.69;100.00;102613.53;5231097;28;20175;-76
2022/01/29 03:15:18;;;;;;;38.27;27.77;;;;;;;5.57;100.00;102598.91;5229429;28;20037;-76
2022/01/29 03:17:49;;;;;;;47.87;29.70;;;;;;;5.59;100.00;102611.91;5230916;28;20098;-75
2022/01/29 03:20:21;;;;;;;39.27;26.93;;;;;;;5.65;100.00;102603.19;5230089;28;20181;-76
2022/01/29 03:22:52;;;;;;;38.93;26.30;;;;;;;5.67;100.00;102604.88;5230947;28;20036;-75
2022/01/29 03:25:24;;;;;;;41.60;28.90;;;;;;;5.69;100.00;102595.31;5214113;28;20021;-76
2022/01/29 03:27:55;;;;;;;38.13;26.43;;;;;;;5.65;100.00;102593.66;5234558;28;20017;-76
2022/01/29 03:30:26;;;;;;;40.67;28.40;;;;;;;5.73;100.00;102595.28;5233533;28;20141;-76
2022/01/29 03:32:57;;;;;;;41.40;27.57;;;;;;;5.66;100.00;102578.91;5234512;28;20033;-76
2022/01/29 03:35:29;;;;;;;42.43;27.33;;;;;;;5.73;100.00;102579.69;5234313;28;20033;-76
2022/01/29 03:38:00;;;;;;;43.73;29.83;;;;;;;5.69;100.00;102573.66;5234227;28;20034;-76
2022/01/29 03:40:33;;;;;;;41.50;27.70;;;;;;;5.75;100.00;102584.00;5216239;28;20037;-75
2022/01/29 03:43:06;;;;;;;40.43;27.90;;;;;;;5.75;100.00;102573.59;5234460;28;20026;-75
2022/01/29 03:45:38;;;;;;;39.80;25.50;;;;;;;5.70;100.00;102578.00;5215160;28;20029;-76
2022/01/29 03:48:09;;;;;;;39.70;27.63;;;;;;;5.64;100.00;102570.25;5234528;28;20040;-77
2022/01/29 03:50:40;;;;;;;36.93;25.67;;;;;;;5.63;100.00;102555.53;5233997;28;20067;-78
2022/01/29 03:53:12;;;;;;;43.10;27.50;;;;;;;5.68;100.00;102561.56;5233539;28;20034;-77
2022/01/29 03:55:43;;;;;;;40.10;27.73;;;;;;;5.71;100.00;102561.50;5234018;28;20030;-78
2022/01/29 03:58:15;;;;;;;38.90;25.67;;;;;;;5.77;100.00;102561.47;5234131;28;20407;-77
2022/01/29 04:00:46;;;;;;;36.50;25.40;;;;;;;5.67;100.00;102559.84;5233167;28;20037;-77
2022/01/29 04:03:17;;;;;;;34.47;24.70;;;;;;;5.71;100.00;102564.09;5233752;28;20039;-75
2022/01/29 04:05:48;;;;;;;35.83;24.63;;;;;;;5.69;100.00;102552.88;5234317;28;20029;-76
2022/01/29 04:08:20;;;;;;;37.43;24.33;;;;;;;5.76;100.00;102541.50;5233104;28;20045;-75
2022/01/29 04:10:52;;;;;;;37.33;24.63;;;;;;;5.73;100.00;102553.69;5234159;28;20033;-76
2022/01/29 04:13:26;;;;;;;34.40;22.53;;;;;;;5.76;100.00;102572.72;5233241;28;20026;-76
2022/01/29 04:15:57;;;;;;;33.10;23.77;;;;;;;5.65;100.00;102539.06;5232680;28;20029;-76
2022/01/29 04:18:28;;;;;;;37.93;23.87;;;;;;;5.81;100.00;102563.13;5233221;28;20083;-75
2022/01/29 04:21:00;;;;;;;33.37;23.57;;;;;;;5.80;100.00;102545.81;5233906;28;20040;-76
2022/01/29 04:23:32;;;;;;;32.17;22.00;;;;;;;5.90;100.00;102554.34;5233422;28;20033;-77
2022/01/29 04:26:05;;;;;;;31.17;20.90;;;;;;;5.93;100.00;102546.50;5233408;28;20105;-77
2022/01/29 04:28:40;;;;;;;36.20;23.57;;;;;;;5.88;100.00;102542.25;5233405;28;20388;-77
2022/01/29 04:31:17;;;;;;;30.20;22.67;;;;;;;5.94;100.00;102536.97;5231670;28;20060;-78
2022/01/29 04:33:48;;;;;;;34.53;21.80;;;;;;;5.89;100.00;102538.78;5233637;28;20033;-76
2022/01/29 04:36:20;;;;;;;31.80;22.40;;;;;;;5.83;100.00;102518.91;5232691;28;20479;-75
2022/01/29 04:38:51;;;;;;;33.97;21.60;;;;;;;5.96;100.00;102535.22;5233234;28;20083;-75
2022/01/29 04:41:22;;;;;;;32.80;23.07;;;;;;;5.86;100.00;102529.28;5232758;28;20028;-75
2022/01/29 04:43:53;;;;;;;35.93;23.57;;;;;;;5.96;100.00;102536.94;5233140;28;20029;-76
2022/01/29 04:46:25;;;;;;;34.53;23.97;;;;;;;5.93;100.00;102530.06;5214757;28;20135;-75
2022/01/29 04:48:56;;;;;;;34.73;23.47;;;;;;;5.95;100.00;102522.25;5232808;28;20523;-76
2022/01/29 04:51:27;;;;;;;33.67;23.93;;;;;;;6.00;100.00;102521.31;5232832;28;20488;-76
2022/01/29 04:53:58;;;;;;;35.27;23.70;;;;;;;6.02;100.00;102526.47;5232882;28;20595;-75
2022/01/29 04:56:30;;;;;;;34.93;25.17;;;;;;;6.00;100.00;102517.84;5232743;28;20036;-75
2022/01/29 04:59:02;;;;;;;37.03;24.57;;;;;;;6.11;100.00;102526.38;5234969;28;20033;-75
2022/01/29 05:01:33;;;;;;;38.43;25.43;;;;;;;5.98;100.00;102517.84;5233387;28;20542;-75
2022/01/29 05:04:04;;;;;;;35.23;25.03;;;;;;;6.09;100.00;102515.13;5230110;28;20036;-75
2022/01/29 05:06:35;;;;;;;34.93;22.30;;;;;;;6.08;100.00;102496.94;5231965;28;20032;-75
2022/01/29 05:09:09;;;;;;;37.90;24.57;;;;;;;6.05;100.00;102503.94;5232720;28;20041;-75
2022/01/29 05:11:42;;;;;;;40.83;26.00;;;;;;;6.09;100.00;102506.47;5214493;28;20499;-75
2022/01/29 05:14:24;;;;;;;38.37;27.60;;;;;;;5.99;100.00;102498.75;5232374;28;20028;-75
2022/01/29 05:26:49;;;;;;;41.83;27.13;;;;;;;6.09;100.00;102496.06;5232234;28;20353;-75
2022/01/29 05:28:28;;;;;;;39.43;26.17;;;;;;;6.15;100.00;102478.63;5232174;28;20041;-75
2022/01/29 05:30:59;;;;;;;39.93;27.20;;;;;;;6.11;100.00;102471.75;5231610;28;20033;-76
2022/01/29 05:33:31;;;;;;;38.63;25.90;;;;;;;6.13;100.00;102471.72;5231528;28;20346;-75
2022/01/29 05:36:02;;;;;;;40.60;27.97;;;;;;;6.12;100.00;102475.22;5232212;28;20463;-75
2022/01/29 05:38:33;;;;;;;39.93;27.27;;;;;;;6.24;100.00;102489.78;5231892;28;20029;-75
2022/01/29 05:41:05;;;;;;;41.53;27.40;;;;;;;6.18;100.00;102488.13;5232424;28;20057;-76
2022/01/29 05:43:36;;;;;;;42.03;28.73;;;;;;;6.16;100.00;102489.91;5231849;28;20029;-76
2022/01/29 05:46:09;;;;;;;40.93;28.23;;;;;;;6.19;100.00;102484.66;5230432;28;20037;-75
2022/01/29 05:48:41;;;;;;;42.37;26.87;;;;;;;6.17;100.00;102486.41;5231224;28;20034;-75
2022/01/29 05:51:12;;;;;;;43.27;28.77;;;;;;;6.26;100.00;102488.00;5231377;28;20021;-75
2022/01/29 05:53:44;;;;;;;40.50;27.77;;;;;;;6.22;100.00;102473.31;5232170;28;20025;-75
2022/01/29 05:56:15;;;;;;;40.10;28.67;;;;;;;6.31;100.00;102467.13;5213453;28;20025;-75
2022/01/29 05:58:46;;;;;;;40.77;28.53;;;;;;;6.27;100.00;102471.50;5231654;28;20091;-75
2022/01/29 06:01:18;;;;;;;46.00;28.83;;;;;;;6.24;100.00;102464.63;5212244;28;20140;-75
2022/01/29 06:03:49;;;;;;;43.00;28.40;;;;;;;6.23;100.00;102468.09;5225975;28;20094;-75
2022/01/29 06:06:21;;;;;;;44.70;27.83;;;;;;;6.36;100.00;102467.91;5193365;28;20030;-75
2022/01/29 06:08:52;;;;;;;44.00;28.60;;;;;;;6.41;100.00;102471.28;5193087;28;20096;-75
2022/01/29 06:11:23;;;;;;;37.10;27.83;;;;;;;6.32;100.00;102463.66;5193300;28;20409;-75
2022/01/29 06:13:54;;;;;;;39.40;28.97;;;;;;;6.23;100.00;102455.09;5210900;28;20032;-75
2022/01/29 06:16:26;;;;;;;42.87;28.87;;;;;;;6.39;100.00;102462.66;5209920;28;20029;-75
2022/01/29 06:18:57;;;;;;;42.47;29.63;;;;;;;6.38;100.00;102453.13;5210477;28;20030;-75
2022/01/29 06:21:29;;;;;;;42.67;28.37;;;;;;;6.34;100.00;102454.91;5210847;28;20029;-75
2022/01/29 06:24:02;;;;;;;42.80;28.83;;;;;;;6.37;100.00;102451.44;5210936;28;20108;-75
2022/01/29 06:26:33;;;;;;;40.13;29.77;;;;;;;6.40;100.00;102454.84;5210229;28;20029;-75
2022/01/29 06:29:04;;;;;;;37.90;27.93;;;;;;;6.40;100.00;102441.84;5210203;28;20026;-75
2022/01/29 06:31:35;;;;;;;39.13;27.63;;;;;;;6.40;100.00;102446.16;5224412;28;20115;-75
2022/01/29 06:34:07;;;;;;;40.73;28.77;;;;;;;6.41;100.00;102455.69;5230942;28;20505;-75
2022/01/29 06:36:38;;;;;;;39.57;28.90;;;;;;;6.42;100.00;102449.59;5213156;28;20036;-75
2022/01/29 06:39:09;;;;;;;39.47;27.87;;;;;;;6.42;100.00;102449.59;5231252;28;20102;-75
2022/01/29 06:41:40;;;;;;;38.83;28.47;;;;;;;6.43;100.00;102440.03;5231080;28;20470;-75
2022/01/29 06:44:12;;;;;;;38.63;28.10;;;;;;;6.51;100.00;102449.44;5229246;28;20577;-75
2022/01/29 06:46:43;;;;;;;37.70;26.67;;;;;;;6.48;100.00;102444.28;5231014;28;20094;-75
2022/01/29 06:49:14;;;;;;;38.97;28.13;;;;;;;6.56;100.00;102441.56;5230457;28;20029;-75
2022/01/29 06:51:45;;;;;;;37.23;26.07;;;;;;;6.57;100.00;102434.59;5231194;28;20168;-75
2022/01/29 06:54:17;;;;;;;36.13;28.10;;;;;;;6.58;100.00;102428.53;5230437;28;20036;-75
2022/01/29 06:56:48;;;;;;;40.80;27.43;;;;;;;6.59;100.00;102431.09;5230977;28;20026;-75
2022/01/29 06:59:19;;;;;;;39.50;26.83;;;;;;;6.54;100.00;102423.34;5229632;28;20038;-75
2022/01/29 07:01:50;;;;;;;36.90;28.13;;;;;;;6.57;100.00;102416.38;5216953;28;20037;-75
2022/01/29 07:04:22;;;;;;;38.60;26.43;;;;;;;6.60;100.00;102416.31;5220096;28;20091;-75
2022/01/29 07:06:53;;;;;;;36.57;29.10;;;;;;;6.64;100.00;102420.59;5214412;28;20026;-75
2022/01/29 07:09:24;;;;;;;37.60;28.20;;;;;;;6.54;100.00;102402.53;5214287;28;20119;-79
2022/01/29 07:11:59;;;;;;;37.77;26.93;;;;;;;6.57;100.00;102403.34;5214310;28;20050;-78
2022/01/29 07:14:31;;;;;;;35.27;26.70;;;;;;;6.64;100.00;102412.78;5213361;28;20026;-78
2022/01/29 07:17:03;;;;;;;35.03;27.33;;;;;;;6.73;100.00;102416.97;5214001;28;20037;-79
2022/01/29 07:19:35;;;;;;;39.87;29.00;;;;;;;6.70;100.00;102402.28;5214072;28;20030;-78
2022/01/29 07:22:06;;;;;;;34.37;28.90;;;;;;;6.73;100.00;102414.38;5214080;28;20487;-79
2022/01/29 07:24:38;;;;;;;36.17;26.63;;;;;;;6.67;100.00;102402.31;5214022;28;20393;-80
2022/01/29 07:27:10;;;;;;;34.50;27.47;;;;;;;6.76;100.00;102402.16;5213739;28;20129;-78
2022/01/29 07:29:41;;;;;;;39.27;28.90;;;;;;;6.71;100.00;102409.19;5195055;28;20033;-77
2022/01/29 07:32:12;;;;;;;33.83;25.43;;;;;;;6.74;100.00;102395.25;5198355;28;20036;-78
2022/01/29 07:34:44;;;;;;;36.40;27.80;;;;;;;6.74;100.00;102411.72;5214372;28;20113;-78
2022/01/29 07:37:15;;;;;;;35.63;27.13;;;;;;;6.74;100.00;102403.06;5215577;28;20034;-75
2022/01/29 07:39:46;;;;;;;33.13;26.23;;;;;;;6.76;100.00;102399.56;5213837;28;20030;-77
2022/01/29 07:42:18;;;;;;;35.00;27.50;;;;;;;6.73;100.00;102397.00;5212830;28;20034;-79
2022/01/29 07:44:49;;;;;;;33.70;26.77;;;;;;;6.81;100.00;102404.66;5228783;28;20034;-82
2022/01/29 07:47:20;;;;;;;35.87;26.30;;;;;;;6.89;100.00;102404.53;5231575;28;20512;-81
2022/01/29 07:49:51;;;;;;;34.10;26.93;;;;;;;6.91;100.00;102394.94;5226155;28;20089;-79
2022/01/29 07:52:22;;;;;;;33.73;25.23;;;;;;;6.95;100.00;102391.38;5222193;28;20281;-77
2022/01/29 07:54:54;;;;;;;34.53;28.13;;;;;;;6.90;100.00;102401.03;5221373;28;20542;-78
2022/01/29 07:57:25;;;;;;;35.70;28.57;;;;;;;6.65;100.00;102352.00;5221281;28;20079;-75
2022/01/29 07:59:56;;;;;;;33.73;26.97;;;;;;;6.91;100.00;102397.56;5218245;28;20029;-77
2022/01/29 08:02:28;;;;;;;37.87;27.23;;;;;;;6.94;100.00;102389.66;5209820;28;20037;-74
2022/01/29 08:04:59;;;;;;;35.63;27.77;;;;;;;6.96;100.00;102392.25;5222809;28;20022;-74
2022/01/29 08:07:30;;;;;;;34.77;27.50;;;;;;;7.03;100.00;102383.41;5225136;28;20034;-74
2022/01/29 08:10:01;;;;;;;30.70;26.50;;;;;;;7.07;100.00;102387.66;5223684;28;20029;-74
2022/01/29 08:12:33;;;;;;;37.37;27.53;;;;;;;6.99;100.00;102369.59;5228299;28;20047;-74
2022/01/29 08:15:06;;;;;;;35.43;27.13;;;;;;;7.13;100.00;102384.09;5215761;28;20043;-74
2022/01/29 08:17:37;;;;;;;34.30;26.53;;;;;;;7.14;100.00;102380.56;5223196;28;20183;-75
2022/01/29 08:20:09;;;;;;;34.60;27.20;;;;;;;7.10;100.00;102365.91;5229498;28;20154;-75
2022/01/29 08:22:40;;;;;;;36.43;27.27;;;;;;;7.20;100.00;102370.03;5225761;28;20102;-75
2022/01/29 08:25:11;;;;;;;29.17;25.83;;;;;;;7.29;100.00;102370.72;5215209;28;20037;-75
2022/01/29 08:27:43;;;;;;;35.57;26.70;;;;;;;7.20;100.00;102358.75;5195194;28;20684;-74
2022/01/29 08:30:14;;;;;;;36.30;26.33;;;;;;;7.18;100.00;102345.75;5210827;28;20448;-74
2022/01/29 08:32:45;;;;;;;35.43;27.93;;;;;;;7.28;100.00;102359.44;5218187;28;20100;-75
2022/01/29 08:35:17;;;;;;;30.83;26.80;;;;;;;7.33;100.00;102364.56;5204803;28;20014;-75
2022/01/29 08:37:48;;;;;;;33.30;27.30;;;;;;;7.26;100.00;102343.00;5222845;28;20109;-73
2022/01/29 08:40:19;;;;;;;29.83;26.57;;;;;;;7.41;100.00;102356.56;5217627;28;20149;-73
2022/01/29 08:42:51;;;;;;;30.53;25.23;;;;;;;7.42;100.00;102351.31;5212286;28;20025;-73
2022/01/29 08:45:23;;;;;;;29.20;23.77;;;;;;;7.44;100.00;102356.50;5193962;28;20540;-73
2022/01/29 08:47:54;;;;;;;28.80;24.03;;;;;;;7.49;100.00;102350.31;5219694;28;20238;-74
2022/01/29 08:50:25;;;;;;;30.47;24.37;;;;;;;7.49;100.00;102342.47;5205546;28;20044;-73
2022/01/29 08:52:57;;;;;;;29.63;24.97;;;;;;;7.55;100.00;102333.66;5212310;28;20697;-74
2022/01/29 08:55:28;;;;;;;30.00;25.70;;;;;;;7.57;100.00;102331.03;5211925;28;20030;-71
2022/01/29 08:57:59;;;;;;;30.07;24.37;;;;;;;7.57;100.00;102341.47;5225183;28;20072;-72
2022/01/29 09:00:31;;;;;;;28.10;23.87;;;;;;;7.57;100.00;102331.03;5231332;28;20030;-72
2022/01/29 09:03:04;;;;;;;27.30;24.27;;;;;;;7.62;100.00;102344.81;5232730;28;20029;-72
2022/01/29 09:05:36;;;;;;;29.53;24.83;;;;;;;7.59;100.00;102337.06;5232293;28;20021;-72
2022/01/29 09:08:07;;;;;;;29.50;23.13;;;;;;;7.65;100.00;102336.03;5231103;28;20041;-73
2022/01/29 09:10:39;;;;;;;28.43;23.80;;;;;;;7.66;100.00;102333.44;5232200;28;20030;-74
2022/01/29 09:13:12;;;;;;;30.77;23.90;;;;;;;7.63;100.00;102333.47;5230278;28;20028;-73
2022/01/29 09:15:43;;;;;;;26.67;22.00;;;;;;;7.68;100.00;102323.78;5220248;28;20034;-73
2022/01/29 09:18:14;;;;;;;27.10;22.33;;;;;;;7.68;100.00;102308.16;5213013;28;20024;-73
2022/01/29 09:20:46;;;;;;;25.10;21.43;;;;;;;7.72;100.00;102327.19;5210931;28;20022;-74
2022/01/29 09:23:17;;;;;;;25.03;21.10;;;;;;;7.71;100.00;102318.53;5205001;28;20056;-74
2022/01/29 09:25:49;;;;;;;23.07;20.13;;;;;;;7.85;100.00;102317.34;5208865;28;20025;-73
2022/01/29 09:28:21;;;;;;;23.00;20.23;;;;;;;7.80;100.00;102322.63;5207349;28;20033;-74
2022/01/29 09:30:52;;;;;;;23.27;19.53;;;;;;;7.90;100.00;102312.84;5224552;28;20040;-72
2022/01/29 09:33:23;;;;;;;26.93;20.17;;;;;;;7.82;100.00;102325.25;5222520;28;20448;-73
2022/01/29 09:35:55;;;;;;;24.70;20.37;;;;;;;7.92;100.00;102316.28;5221186;28;20037;-73
2022/01/29 09:38:26;;;;;;;23.10;18.33;;;;;;;7.99;100.00;102327.44;5215049;28;20026;-74
2022/01/29 09:40:59;;;;;;;23.40;19.53;;;;;;;7.94;100.00;102319.69;5216900;28;20030;-71
2022/01/29 09:43:32;;;;;;;21.67;19.47;;;;;;;8.03;100.00;102330.81;5206916;28;20037;-73
2022/01/29 09:46:04;;;;;;;22.20;19.67;;;;;;;7.99;100.00;102325.66;5220068;28;20017;-72
2022/01/29 09:48:36;;;;;;;32.17;19.97;;;;;;;7.99;100.00;102322.22;5216288;28;20060;-74
2022/01/29 09:51:12;;;;;;;23.07;20.33;;;;;;;8.01;100.00;102324.78;5193582;28;20040;-74
2022/01/29 09:53:43;;;;;;;20.90;18.07;;;;;;;8.02;100.00;102318.66;5196719;28;20026;-74
2022/01/29 09:56:15;;;;;;;21.17;18.90;;;;;;;8.08;100.00;102327.19;5221001;28;20079;-74
2022/01/29 09:58:47;;;;;;;25.47;18.97;;;;;;;8.08;100.00;102331.56;5224976;28;20396;-74
2022/01/29 10:01:18;;;;;;;25.03;19.10;;;;;;;8.02;100.00;102322.13;5230095;28;20046;-73
2022/01/29 10:04:04;;;;;;;21.90;19.60;;;;;;;8.06;100.00;102328.13;5225608;28;20037;-74
2022/01/29 10:06:37;;;;;;;21.83;19.37;;;;;;;8.13;100.00;102332.31;5217661;28;20453;-73
2022/01/29 10:09:11;;;;;;;20.77;18.42;;;;;;;8.11;100.00;102321.91;5220907;28;20147;-74
2022/01/29 10:11:42;;;;;;;21.97;19.40;;;;;;;8.21;100.00;102327.72;5213307;28;20076;-74
2022/01/29 10:14:14;;;;;;;23.20;20.60;;;;;;;8.25;100.00;102317.22;5214899;28;20021;-74
2022/01/29 10:16:45;;;;;;;22.03;19.63;;;;;;;8.25;100.00;102312.00;5224458;28;20041;-74
2022/01/29 10:19:16;;;;;;;23.57;19.60;;;;;;;8.33;100.00;102317.84;5210825;28;20103;-74
2022/01/29 10:21:48;;;;;;;25.27;20.50;;;;;;;8.33;100.00;102307.41;5223057;28;20069;-74
2022/01/29 10:24:21;;;;;;;20.67;17.53;;;;;;;8.37;100.00;102300.34;5217810;28;20033;-74
2022/01/29 10:26:52;;;;;;;22.30;20.00;;;;;;;8.38;100.00;102307.31;5230256;28;20029;-74
2022/01/29 10:29:26;;;;;;;23.00;19.20;;;;;;;8.42;100.00;102298.47;5226545;28;20393;-73
2022/01/29 10:32:00;;;;;;;20.67;18.50;;;;;;;8.44;100.00;102292.34;5221485;28;20029;-75
2022/01/29 10:34:36;;;;;;;21.33;18.97;;;;;;;8.56;100.00;102288.56;5211890;28;20546;-75
2022/01/29 10:37:19;;;;;;;21.37;19.07;;;;;;;8.59;100.00;102285.84;5230489;28;20084;-75
2022/01/29 10:39:56;;;;;;;21.83;17.80;;;;;;;8.47;100.00;102271.34;5230984;28;20032;-75
2022/01/29 10:42:33;;;;;;;20.20;18.10;;;;;;;8.52;100.00;102273.00;5217507;28;20388;-76
2022/01/29 10:45:07;;;;;;;21.97;18.20;;;;;;;8.55;100.00;102283.34;5209331;28;20037;-69
2022/01/29 10:47:52;;;;;;;19.77;16.98;;;;;;;8.63;100.00;102276.16;5210263;28;20079;-74
2022/01/29 10:50:24;;;;;;;19.70;17.45;;;;;;;8.62;100.00;102264.03;5210269;28;20539;-74
2022/01/29 10:52:56;;;;;;;21.13;15.90;;;;;;;8.63;100.00;102250.06;5210155;28;20057;-74
2022/01/29 10:55:27;;;;;;;17.70;14.97;;;;;;;8.69;100.00;102260.31;5197037;28;20060;-74
2022/01/29 10:57:58;;;;;;;16.83;15.10;;;;;;;8.71;100.00;102266.34;5194977;28;20113;-72
2022/01/29 11:00:35;;;;;;;18.03;15.93;;;;;;;8.61;100.00;102251.84;5210989;28;20072;-75
2022/01/29 11:03:06;;;;;;;15.83;14.23;;;;;;;8.67;100.00;102248.22;5226887;28;20033;-72
2022/01/29 11:05:38;;;;;;;15.27;13.57;;;;;;;8.75;100.00;102253.19;5197546;28;20404;-75
2022/01/29 11:08:11;;;;;;;14.20;12.87;;;;;;;8.76;100.00;102253.16;5218459;28;20769;-71
2022/01/29 11:10:43;;;;;;;13.27;11.87;;;;;;;8.87;100.00;102247.63;5221161;28;20036;-71
2022/01/29 11:13:14;;;;;;;13.10;11.67;;;;;;;8.90;100.00;102242.28;5227614;28;20030;-70
2022/01/29 11:15:46;;;;;;;12.73;10.23;;;;;;;9.01;100.00;102239.34;5233400;28;20133;-72
2022/01/29 11:18:18;;;;;;;13.07;10.33;;;;;;;8.99;100.00;102251.59;5232828;28;20062;-72
2022/01/29 11:20:49;;;;;;;17.17;10.83;;;;;;;9.05;100.00;102229.66;5251125;28;20464;-72
2022/01/29 11:23:22;;;;;;;16.53;9.13;;;;;;;9.08;100.00;102233.03;5222310;28;20084;-77
2022/01/29 11:25:55;;;;;;;9.83;8.30;;;;;;;9.15;100.00;102235.44;5230024;28;20025;-77
2022/01/29 11:28:28;;;;;;;13.20;8.40;;;;;;;9.07;100.00;102214.78;5228563;28;20021;-79
2022/01/29 11:31:15;;;;;;;13.20;8.80;;;;;;;9.17;100.00;102224.06;5230045;28;20025;-74
2022/01/29 11:33:58;;;;;;;10.87;7.87;;;;;;;9.24;100.00;102226.47;5230506;28;20022;-75
2022/01/29 11:36:47;;;;;;;10.00;8.30;;;;;;;9.31;100.00;102209.69;5229800;28;20152;-74
2022/01/29 11:39:19;;;;;;;11.30;8.07;;;;;;;9.32;100.00;102214.00;5229872;28;20026;-73
2022/01/29 11:42:15;;;;;;;8.43;7.53;;;;;;;9.44;100.00;102192.69;5230069;28;20052;-70
2022/01/29 11:44:48;;;;;;;9.63;7.23;;;;;;;9.41;100.00;102194.53;5228884;28;20038;-75
2022/01/29 11:47:22;;;;;;;7.43;6.23;;;;;;;9.51;100.00;102182.03;5232576;28;20021;-75